메인 페이지
METAR-TAF:

METAR-TAF

공항 :

Stanton County, 캔자스, 미국

위도: 37-35-07N, 경도: 101-43-56W, 고도: 1013m

현재 날씨관측

예보는 27분 전, 01:15시(UTC)에 발표되었습니다.
북동7kt
온도 1°C
습도 93%
기압 1015 hPa
시정: 0.8km
고도 200ft 상공 흐림
안개

METAR: KJHN 170115Z AUTO 05007KT 1/2SM FG OVC002 01/00 A2997 RMK AO2 T00081001

시각: 19:42 (01:42 UTC)


TAF: 누락

4,000개 이상의 공항 관측 자료 및 예보 (METAR 및 TAF 보고).

지도상에서 검색 가능한 기상관측소가 노란 점과 빨간 점으로 표시되어 있습니다.

기상관측소 명을 보려면 표시 위로 마우스를 이동하세요.

날씨 관측과 예보를 보려면 클릭하세요.

지도 변경 : 확대하려면 엑스 표시가 있는 녹색 버튼, 축소하려면 빼기 표시가 있는 녹색 버튼, 다음 페이지의 지도를 보려면 녹색 화살표를 클릭하세요.


METAR-TAF: